Time;durP1;ratioP1;P1;durP2;ratioP2;P2;SDS_P1;SDS_P2;PMS_P1;PMS_P2;Temp;Humidity;BMP_temperature;BMP_pressure;BME280_temperature;BME280_humidity;BME280_pressure;Samples;Min_cycle;Max_cycle;Signal;HPM_P1;HPM_P2
2021/08/06 00:01:32;;;;;;;8.60;4.50;;;;;;;18.92;79.79;98529.18;130444;1090;22543;-59
2021/08/06 00:04:02;;;;;;;9.65;5.50;;;;;;;18.90;80.08;98548.03;130241;1090;113950;-58
2021/08/06 00:06:39;;;;;;;6.70;4.95;;;;;;;18.91;80.31;98546.08;130503;1090;22519;-59
2021/08/06 00:09:09;;;;;;;9.30;4.43;;;;;;;18.91;80.40;98551.59;130350;1088;113847;-59
2021/08/06 00:11:44;;;;;;;7.45;4.60;;;;;;;18.89;80.32;98535.40;130450;1090;22536;-59
2021/08/06 00:14:13;;;;;;;7.65;4.83;;;;;;;18.90;80.63;98534.22;130452;1090;22549;-59
2021/08/06 00:16:43;;;;;;;9.10;5.18;;;;;;;18.91;80.15;98526.75;130277;1089;113822;-58
2021/08/06 00:19:30;;;;;;;9.25;4.58;;;;;;;18.91;80.37;98527.56;130493;1090;23376;-58
2021/08/06 00:21:58;;;;;;;8.63;5.18;;;;;;;18.92;80.45;98512.62;130353;1089;114181;-59
2021/08/06 00:24:27;;;;;;;10.43;5.08;;;;;;;18.93;80.31;98528.04;130434;1090;23485;-59
2021/08/06 00:26:57;;;;;;;8.60;4.43;;;;;;;18.94;80.55;98529.66;130452;1089;22530;-58
2021/08/06 00:29:27;;;;;;;5.65;4.20;;;;;;;18.96;80.70;98529.32;130243;1090;113648;-58
2021/08/06 00:31:56;;;;;;;6.93;4.75;;;;;;;18.95;80.74;98506.43;130435;1090;23260;-58
2021/08/06 00:34:25;;;;;;;6.40;4.63;;;;;;;18.93;80.65;98496.86;130308;1090;113853;-58
2021/08/06 00:36:54;;;;;;;9.18;4.43;;;;;;;18.89;80.77;98494.00;130424;1089;22547;-59
2021/08/06 00:39:25;;;;;;;7.98;4.95;;;;;;;18.88;80.88;98492.38;130113;1090;112709;-61
2021/08/06 00:41:54;;;;;;;7.48;3.90;;;;;;;18.88;80.86;98494.33;130188;1090;22566;-58
2021/08/06 00:44:23;;;;;;;7.23;3.60;;;;;;;18.85;80.71;98492.23;130328;1088;22530;-59
2021/08/06 00:46:52;;;;;;;5.23;3.33;;;;;;;18.83;81.06;98481.53;130345;1090;113770;-58
2021/08/06 00:49:21;;;;;;;7.50;4.05;;;;;;;18.81;81.01;98483.01;130458;1088;22566;-59
2021/08/06 00:51:52;;;;;;;8.73;2.83;;;;;;;18.78;80.82;98473.45;130035;1090;113830;-58
2021/08/06 00:54:23;;;;;;;6.40;2.98;;;;;;;18.76;80.86;98466.64;130165;1090;22592;-58
2021/08/06 00:57:06;;;;;;;3.83;2.78;;;;;;;18.73;80.87;98473.67;130349;1089;22588;-58
2021/08/06 00:59:38;;;;;;;6.75;2.90;;;;;;;18.72;80.94;98474.81;130286;1088;113708;-59
2021/08/06 01:02:17;;;;;;;6.88;3.00;;;;;;;18.69;80.93;98448.70;130111;1090;22543;-58
2021/08/06 01:05:09;;;;;;;5.25;2.83;;;;;;;18.68;80.99;98436.05;130028;1090;113898;-58
2021/08/06 01:08:10;;;;;;;5.33;2.80;;;;;;;18.66;80.62;98420.97;130135;1090;22553;-59
2021/08/06 01:11:00;;;;;;;6.30;2.78;;;;;;;18.63;80.40;98405.89;130213;1089;114189;-59
2021/08/06 01:13:43;;;;;;;6.28;2.50;;;;;;;18.60;80.48;98395.55;130172;1088;23690;-59
2021/08/06 01:20:55;;;;;;;7.33;2.40;;;;;;;18.59;80.03;98393.13;130492;1088;22575;-57
2021/08/06 01:23:33;;;;;;;8.98;2.65;;;;;;;18.60;79.77;98390.03;130199;1090;113982;-58
2021/08/06 01:26:07;;;;;;;5.50;2.65;;;;;;;18.63;79.81;98392.09;130135;1089;23500;-58
2021/08/06 01:28:48;;;;;;;6.20;2.68;;;;;;;18.64;79.79;98382.67;130292;1090;116165;-58
2021/08/06 01:31:27;;;;;;;8.00;2.55;;;;;;;18.66;79.55;98385.09;130147;1090;22582;-58
2021/08/06 01:34:08;;;;;;;3.68;2.83;;;;;;;18.66;79.32;98369.34;130172;1089;114389;-58
2021/08/06 01:36:38;;;;;;;3.58;2.40;;;;;;;18.68;79.17;98356.02;130430;1089;22633;-58
2021/08/06 01:39:08;;;;;;;4.00;2.60;;;;;;;18.69;78.68;98327.29;130443;1089;22680;-60
2021/08/06 01:41:49;;;;;;;5.55;2.83;;;;;;;18.72;78.31;98303.73;130378;1090;113873;-60
2021/08/06 01:44:51;;;;;;;4.15;2.70;;;;;;;18.75;78.24;98274.66;130165;1090;22554;-60
2021/08/06 01:47:29;;;;;;;8.15;3.15;;;;;;;18.77;77.90;98275.90;129807;1093;114388;-61
2021/08/06 01:53:11;;;;;;;6.13;2.65;;;;;;;18.71;78.14;98224.86;125521;1093;22865;-59
2021/08/06 01:56:18;;;;;;;5.00;3.03;;;;;;;18.68;78.33;98211.74;125451;1093;24579;-62
2021/08/06 01:58:51;;;;;;;4.13;2.35;;;;;;;18.63;78.69;98196.20;129689;1092;113921;-60
2021/08/06 02:01:23;;;;;;;3.83;2.73;;;;;;;18.58;78.97;98187.34;129803;1093;23575;-60
2021/08/06 02:04:02;;;;;;;5.25;2.53;;;;;;;18.53;78.99;98240.77;129742;1093;113764;-60
2021/08/06 02:06:33;;;;;;;3.47;2.70;;;;;;;18.52;79.19;98318.34;130013;1092;22535;-60
2021/08/06 02:09:05;;;;;;;6.95;2.53;;;;;;;18.51;79.67;98313.97;129823;1093;22605;-60
2021/08/06 02:11:38;;;;;;;3.68;2.13;;;;;;;18.53;79.66;98308.92;129706;1092;112980;-61
2021/08/06 02:14:14;;;;;;;6.75;2.90;;;;;;;18.55;79.63;98309.39;129774;1092;22548;-61
2021/08/06 02:16:47;;;;;;;9.25;3.00;;;;;;;18.57;79.67;98307.10;129684;1093;113708;-60
2021/08/06 02:19:18;;;;;;;5.33;2.45;;;;;;;18.58;79.85;98294.92;129831;1093;22564;-60
2021/08/06 02:21:49;;;;;;;5.18;3.13;;;;;;;18.54;80.07;98294.80;129738;1092;113996;-60
2021/08/06 02:24:21;;;;;;;6.73;2.38;;;;;;;18.54;79.99;98296.74;129796;1093;22541;-61
2021/08/06 02:26:50;;;;;;;4.93;2.75;;;;;;;18.53;80.17;98301.45;129776;1092;22554;-61
2021/08/06 02:29:22;;;;;;;7.63;2.73;;;;;;;18.53;80.06;98301.45;129684;1093;113797;-61
2021/08/06 02:31:50;;;;;;;5.15;2.88;;;;;;;18.54;80.28;98300.31;129778;1093;23596;-61
2021/08/06 02:34:21;;;;;;;3.93;2.40;;;;;;;18.54;80.16;98300.31;129703;1093;113772;-61
2021/08/06 02:36:52;;;;;;;5.28;2.35;;;;;;;18.52;80.01;98286.05;129798;1093;23409;-61
2021/08/06 02:39:23;;;;;;;5.08;2.70;;;;;;;18.50;80.12;98291.09;129795;1092;113805;-59
2021/08/06 02:41:58;;;;;;;5.88;2.13;;;;;;;18.52;79.96;98277.77;129929;1093;22572;-59
2021/08/06 02:44:27;;;;;;;4.78;2.08;;;;;;;18.53;79.89;98256.51;130021;1093;22493;-59
2021/08/06 02:47:08;;;;;;;5.95;2.20;;;;;;;18.52;79.88;98244.67;129862;1093;113798;-59
2021/08/06 02:49:37;;;;;;;4.23;2.58;;;;;;;18.51;79.80;98251.33;129775;1093;22550;-58
2021/08/06 02:52:07;;;;;;;7.98;2.35;;;;;;;18.52;79.67;98258.46;129705;1093;113853;-59
2021/08/06 02:54:37;;;;;;;3.60;2.30;;;;;;;18.52;79.67;98255.70;129746;1093;22603;-59
2021/08/06 02:57:06;;;;;;;4.18;2.45;;;;;;;18.53;79.44;98248.23;129742;1093;22570;-59
2021/08/06 02:59:36;;;;;;;2.43;2.23;;;;;;;18.54;79.77;98239.63;129676;1092;113576;-58
2021/08/06 03:02:06;;;;;;;4.10;2.73;;;;;;;18.55;79.52;98245.95;129783;1092;22579;-59
2021/08/06 03:04:35;;;;;;;4.68;2.50;;;;;;;18.57;79.64;98254.69;129653;1092;113694;-59
2021/08/06 03:07:07;;;;;;;4.63;2.63;;;;;;;18.58;79.63;98246.11;129750;1093;22555;-59
2021/08/06 03:09:37;;;;;;;5.83;2.93;;;;;;;18.60;79.42;98245.77;129689;1092;114252;-59
2021/08/06 03:12:06;;;;;;;4.58;2.85;;;;;;;18.59;79.57;98222.89;129752;1093;22563;-60
2021/08/06 03:14:39;;;;;;;7.50;2.25;;;;;;;18.59;79.09;98227.60;129819;1093;23199;-59
2021/08/06 03:17:09;;;;;;;4.05;2.40;;;;;;;18.58;79.38;98224.04;129650;1093;113714;-60
2021/08/06 03:19:59;;;;;;;9.10;2.35;;;;;;;18.57;79.34;98238.95;129764;1093;22554;-60
2021/08/06 03:22:28;;;;;;;4.20;2.90;;;;;;;18.58;79.11;98237.83;129603;1093;113947;-59
2021/08/06 03:24:57;;;;;;;4.33;2.38;;;;;;;18.61;79.35;98231.61;129780;1092;22642;-59
2021/08/06 03:27:27;;;;;;;3.08;2.35;;;;;;;18.63;79.33;98237.59;129684;1093;114151;-60
2021/08/06 03:29:57;;;;;;;4.38;2.70;;;;;;;18.64;79.06;98239.20;129788;1092;22517;-60
2021/08/06 03:32:26;;;;;;;3.05;2.10;;;;;;;18.65;79.28;98243.58;129759;1092;22564;-59
2021/08/06 03:34:55;;;;;;;6.65;3.20;;;;;;;18.65;79.32;98240.82;129682;1093;113732;-60
2021/08/06 03:37:24;;;;;;;6.73;2.88;;;;;;;18.66;79.18;98247.95;129760;1093;22541;-59
2021/08/06 03:39:53;;;;;;;7.28;3.03;;;;;;;18.66;79.13;98250.70;128259;1092;113842;-58
2021/08/06 03:42:22;;;;;;;4.83;2.50;;;;;;;18.69;79.24;98247.27;129746;1093;22643;-58
2021/08/06 03:44:52;;;;;;;5.60;2.35;;;;;;;18.71;79.47;98238.66;129776;1093;22582;-58
2021/08/06 03:47:20;;;;;;;3.53;2.60;;;;;;;18.72;79.34;98234.75;129641;1093;114015;-58
2021/08/06 03:50:09;;;;;;;4.45;2.68;;;;;;;18.73;79.61;98235.56;129765;1093;22556;-58
2021/08/06 03:52:38;;;;;;;4.38;3.35;;;;;;;18.73;79.52;98228.08;129655;1093;114665;-57
2021/08/06 03:55:14;;;;;;;4.05;3.30;;;;;;;18.73;79.68;98241.88;129788;1093;22646;-59
2021/08/06 03:57:50;;;;;;;5.23;3.48;;;;;;;18.75;79.74;98238.78;129668;1092;113982;-58
2021/08/06 04:00:20;;;;;;;5.27;2.70;;;;;;;18.75;79.43;98256.15;129807;1093;22540;-58
2021/08/06 04:02:49;;;;;;;5.00;2.80;;;;;;;18.78;79.61;98249.11;129754;1092;22612;-58
2021/08/06 04:05:19;;;;;;;4.28;3.03;;;;;;;18.79;79.48;98248.77;129657;1093;113991;-58
2021/08/06 04:07:48;;;;;;;5.53;2.95;;;;;;;18.80;79.30;98244.87;129760;1093;22598;-58
2021/08/06 04:10:40;;;;;;;5.08;2.85;;;;;;;18.83;79.43;98257.18;129655;1093;113507;-58
2021/08/06 04:13:29;;;;;;;5.13;2.65;;;;;;;18.89;79.40;98278.70;129822;1093;22564;-58
2021/08/06 04:15:58;;;;;;;4.83;3.13;;;;;;;18.95;79.41;98270.98;129649;1092;114253;-58
2021/08/06 04:18:28;;;;;;;7.95;3.03;;;;;;;19.04;79.47;98272.48;129753;1091;22548;-58
2021/08/06 04:20:58;;;;;;;4.43;2.80;;;;;;;19.16;79.28;98285.52;129736;1093;23052;-58
2021/08/06 04:23:27;;;;;;;6.63;2.80;;;;;;;19.26;79.16;98274.00;129680;1093;113597;-58
2021/08/06 04:25:56;;;;;;;5.00;2.50;;;;;;;19.36;78.74;98262.48;129811;1093;22552;-58
2021/08/06 04:28:25;;;;;;;5.70;2.60;;;;;;;19.48;78.37;98255.36;129677;1093;114261;-58
2021/08/06 04:30:54;;;;;;;6.40;2.78;;;;;;;19.60;78.18;98261.70;129787;1092;22615;-58
2021/08/06 04:33:23;;;;;;;7.45;2.70;;;;;;;19.72;77.76;98263.63;129696;1093;113721;-58
2021/08/06 04:35:52;;;;;;;12.28;3.20;;;;;;;19.86;77.83;98286.17;129747;1093;22934;-58
2021/08/06 04:38:20;;;;;;;5.03;2.55;;;;;;;19.98;77.07;98272.30;129787;1093;22505;-58
2021/08/06 04:40:50;;;;;;;3.38;2.18;;;;;;;20.04;76.60;98273.68;129693;1092;113827;-58
2021/08/06 04:43:20;;;;;;;4.73;2.48;;;;;;;20.20;76.12;98295.06;129796;1093;22559;-58
2021/08/06 04:45:49;;;;;;;4.78;2.48;;;;;;;20.29;75.91;98282.69;129658;1093;113859;-58
2021/08/06 04:48:21;;;;;;;2.40;2.18;;;;;;;20.37;75.44;98294.77;129791;1093;22542;-58
2021/08/06 04:50:51;;;;;;;5.63;2.73;;;;;;;20.42;75.02;98295.34;129764;1093;22544;-58
2021/08/06 04:53:20;;;;;;;4.08;2.43;;;;;;;20.46;74.26;98278.84;129706;1093;113453;-58
2021/08/06 04:55:48;;;;;;;4.28;2.35;;;;;;;20.54;74.32;98277.06;129765;1093;22572;-58
2021/08/06 04:58:17;;;;;;;3.50;2.45;;;;;;;20.68;74.15;98271.91;129698;1093;113623;-58
2021/08/06 05:00:49;;;;;;;3.83;2.30;;;;;;;20.92;73.96;98279.28;129779;1093;22537;-58
2021/08/06 05:03:19;;;;;;;4.38;2.43;;;;;;;21.18;72.94;98282.31;129645;1093;113857;-60
2021/08/06 05:05:50;;;;;;;5.58;2.50;;;;;;;21.45;72.20;98288.93;129755;1093;23207;-58
2021/08/06 05:08:20;;;;;;;4.75;2.33;;;;;;;21.77;71.76;98284.94;129758;1093;23682;-58
2021/08/06 05:10:50;;;;;;;7.43;2.85;;;;;;;22.10;70.67;98289.22;129694;1093;114079;-58
2021/08/06 05:13:19;;;;;;;5.90;2.33;;;;;;;22.38;69.54;98287.03;129769;1093;22546;-58
2021/08/06 05:16:08;;;;;;;5.60;2.38;;;;;;;22.62;68.29;98299.81;129677;1093;114150;-58
2021/08/06 05:18:40;;;;;;;7.28;2.80;;;;;;;22.87;67.86;98303.08;129796;1093;22954;-58
2021/08/06 05:21:09;;;;;;;4.98;2.33;;;;;;;23.09;67.15;98312.59;129744;1093;22563;-58
2021/08/06 05:23:39;;;;;;;5.83;2.73;;;;;;;23.22;66.35;98314.84;129674;1092;112715;-58
2021/08/06 05:26:09;;;;;;;6.53;2.40;;;;;;;23.28;66.04;98323.66;129758;1091;23031;-58
2021/08/06 05:28:38;;;;;;;3.35;2.50;;;;;;;23.37;65.59;98332.56;129678;1093;113740;-58
2021/08/06 05:31:08;;;;;;;6.20;3.08;;;;;;;23.54;65.61;98343.18;129838;1093;23041;-58
2021/08/06 05:33:37;;;;;;;3.55;2.25;;;;;;;23.79;65.39;98337.23;129659;1093;113838;-58
2021/08/06 05:36:06;;;;;;;5.08;2.63;;;;;;;24.05;64.31;98340.00;129825;1093;23078;-59
2021/08/06 05:38:35;;;;;;;4.08;2.70;;;;;;;24.28;63.30;98331.58;129765;1093;22971;-59
2021/08/06 05:41:06;;;;;;;6.95;2.90;;;;;;;24.49;62.67;98325.49;129659;1092;113627;-58
2021/08/06 05:43:34;;;;;;;6.50;2.95;;;;;;;24.71;61.92;98330.12;129798;1093;23356;-59
2021/08/06 05:46:03;;;;;;;4.70;2.58;;;;;;;24.90;61.16;98335.52;129661;1093;113818;-59
2021/08/06 05:48:32;;;;;;;6.75;2.65;;;;;;;25.13;60.91;98332.58;129757;1093;23386;-59
2021/08/06 05:51:02;;;;;;;4.05;2.53;;;;;;;25.38;60.18;98340.40;129794;1093;23540;-59
2021/08/06 05:53:31;;;;;;;5.75;2.43;;;;;;;25.62;59.11;98342.62;129662;1092;113656;-59
2021/08/06 05:56:02;;;;;;;4.13;2.75;;;;;;;25.78;58.88;98333.97;129759;1093;22549;-58
2021/08/06 05:58:42;;;;;;;4.38;2.28;;;;;;;25.86;58.02;98341.98;129667;1093;114497;-59
2021/08/06 06:01:11;;;;;;;5.93;3.30;;;;;;;25.87;58.52;98346.38;129806;1093;22634;-59
2021/08/06 06:03:46;;;;;;;4.80;3.03;;;;;;;25.82;57.93;98348.76;129633;1092;113922;-59
2021/08/06 06:06:20;;;;;;;5.03;2.60;;;;;;;25.61;58.20;98346.56;129780;1093;22979;-59
2021/08/06 06:08:49;;;;;;;4.45;2.40;;;;;;;25.35;58.49;98348.34;129793;1093;23343;-58
2021/08/06 06:11:19;;;;;;;5.58;2.78;;;;;;;25.05;58.89;98349.63;129672;1093;114268;-59
2021/08/06 06:13:48;;;;;;;5.50;2.30;;;;;;;24.73;59.64;98358.41;129813;1093;22559;-58
2021/08/06 06:16:18;;;;;;;4.60;2.75;;;;;;;24.44;60.58;98357.25;129701;1093;114366;-58
2021/08/06 06:18:47;;;;;;;4.78;2.85;;;;;;;24.19;61.09;98358.88;129785;1093;22553;-58
2021/08/06 06:21:16;;;;;;;6.98;2.88;;;;;;;24.00;61.76;98367.33;129757;1093;22570;-59
2021/08/06 06:23:45;;;;;;;4.70;2.70;;;;;;;23.82;62.56;98361.48;129676;1093;113934;-58
2021/08/06 06:26:16;;;;;;;3.18;2.70;;;;;;;23.65;63.16;98365.63;129770;1093;23311;-58
2021/08/06 06:28:45;;;;;;;4.45;2.60;;;;;;;23.47;63.11;98361.70;129665;1093;114314;-58
2021/08/06 06:31:14;;;;;;;6.08;3.00;;;;;;;23.28;63.60;98366.14;129738;1093;22615;-58
2021/08/06 06:33:43;;;;;;;2.98;2.28;;;;;;;23.16;64.26;98360.77;129680;1093;114367;-58
2021/08/06 06:36:12;;;;;;;5.28;2.85;;;;;;;23.06;64.70;98349.47;129803;1093;23744;-58
2021/08/06 06:38:41;;;;;;;4.35;2.88;;;;;;;23.02;64.97;98362.48;129779;1093;22969;-58
2021/08/06 06:41:11;;;;;;;4.98;3.03;;;;;;;22.95;65.49;98356.78;129696;1093;114318;-58
2021/08/06 06:43:41;;;;;;;5.75;3.00;;;;;;;22.87;65.63;98351.11;129840;1093;22528;-58
2021/08/06 06:46:10;;;;;;;7.15;2.70;;;;;;;22.80;65.86;98347.38;129620;1093;114519;-58
2021/08/06 06:48:38;;;;;;;6.43;2.73;;;;;;;22.74;66.32;98357.96;129773;1093;22515;-58
2021/08/06 06:51:08;;;;;;;6.35;2.95;;;;;;;22.67;66.46;98355.03;129805;1092;22580;-58
2021/08/06 06:53:37;;;;;;;7.85;3.00;;;;;;;22.61;66.66;98362.06;129717;1093;113866;-58
2021/08/06 06:56:06;;;;;;;5.35;3.10;;;;;;;22.58;67.24;98371.92;129741;1093;23126;-59
2021/08/06 06:58:35;;;;;;;4.10;2.78;;;;;;;22.56;67.63;98370.67;129628;1093;113262;-58
2021/08/06 07:01:05;;;;;;;10.53;2.90;;;;;;;22.56;67.46;98367.90;129771;1093;22624;-58
2021/08/06 07:03:34;;;;;;;6.08;3.08;;;;;;;22.54;67.77;98367.45;129711;1093;114317;-58
2021/08/06 07:06:03;;;;;;;4.58;3.50;;;;;;;22.51;68.05;98357.88;129794;1093;23650;-58
2021/08/06 07:08:34;;;;;;;4.85;2.88;;;;;;;22.46;68.19;98360.97;129807;1093;22539;-58
2021/08/06 07:11:04;;;;;;;5.08;3.40;;;;;;;22.44;68.46;98345.84;129668;1093;113826;-59
2021/08/06 07:13:35;;;;;;;3.93;3.08;;;;;;;22.43;68.32;98350.59;129735;1093;22518;-59
2021/08/06 07:16:05;;;;;;;5.00;2.95;;;;;;;22.37;68.18;98343.70;129637;1093;114040;-59
2021/08/06 07:18:35;;;;;;;8.45;3.05;;;;;;;22.39;68.87;98346.92;129758;1095;23051;-59
2021/08/06 07:21:06;;;;;;;4.90;3.00;;;;;;;22.40;68.92;98342.98;129717;1095;23443;-58
2021/08/06 07:23:35;;;;;;;8.50;3.20;;;;;;;22.42;69.06;98350.95;129310;1096;114049;-58
2021/08/06 07:26:04;;;;;;;5.88;3.80;;;;;;;22.40;68.69;98348.53;129681;1095;23410;-59
2021/08/06 07:28:34;;;;;;;6.45;3.40;;;;;;;22.39;68.66;98357.22;129635;1096;113762;-59
2021/08/06 07:31:03;;;;;;;7.40;3.63;;;;;;;22.39;69.00;98360.00;129707;1095;22534;-58
2021/08/06 07:33:32;;;;;;;5.78;3.68;;;;;;;22.35;68.49;98361.92;129626;1096;114483;-58
2021/08/06 07:36:01;;;;;;;6.93;3.50;;;;;;;22.27;68.68;98365.69;129725;1096;22601;-58
2021/08/06 07:38:30;;;;;;;6.40;3.40;;;;;;;22.19;69.22;98365.55;129707;1095;22626;-58
2021/08/06 07:40:59;;;;;;;5.85;3.45;;;;;;;22.17;69.51;98378.17;129631;1096;113778;-59
2021/08/06 07:43:33;;;;;;;9.25;4.13;;;;;;;22.11;69.01;98366.53;129722;1096;22554;-59
2021/08/06 07:46:03;;;;;;;5.75;3.40;;;;;;;22.04;69.07;98371.94;129639;1095;114174;-59
2021/08/06 07:48:32;;;;;;;6.05;3.58;;;;;;;22.00;69.51;98392.43;129709;1095;23034;-59
2021/08/06 07:51:02;;;;;;;9.48;4.70;;;;;;;21.99;69.76;98388.85;129765;1093;23723;-59
2021/08/06 07:53:31;;;;;;;8.05;3.70;;;;;;;22.00;69.93;98390.47;129631;1092;113720;-58
2021/08/06 07:56:04;;;;;;;7.38;3.90;;;;;;;22.01;70.30;98377.41;129785;1092;22660;-58
2021/08/06 07:58:33;;;;;;;7.65;4.03;;;;;;;22.04;70.05;98371.94;129703;1092;114199;-58
2021/08/06 08:01:03;;;;;;;11.30;5.65;;;;;;;22.07;69.95;98374.00;129762;1093;23172;-58
2021/08/06 08:03:33;;;;;;;7.25;4.08;;;;;;;22.09;69.90;98377.19;129661;1092;114062;-59
2021/08/06 08:06:02;;;;;;;12.60;6.20;;;;;;;22.12;69.66;98382.02;129755;1092;22582;-58
2021/08/06 08:08:32;;;;;;;6.97;4.23;;;;;;;22.13;69.57;98389.18;129747;1093;22623;-58
2021/08/06 08:11:02;;;;;;;6.15;3.90;;;;;;;22.16;69.49;98382.91;129651;1093;114597;-58
2021/08/06 08:13:31;;;;;;;7.35;4.05;;;;;;;22.19;69.32;98384.16;129770;1093;22556;-59
2021/08/06 08:16:02;;;;;;;7.35;3.93;;;;;;;22.22;69.29;98400.06;129656;1093;113832;-59
2021/08/06 08:18:51;;;;;;;9.45;4.58;;;;;;;22.26;68.84;98412.06;129762;1093;23170;-59
2021/08/06 08:21:25;;;;;;;7.73;3.70;;;;;;;22.29;68.70;98377.23;129652;1093;113722;-58
2021/08/06 08:23:54;;;;;;;7.65;3.95;;;;;;;22.29;68.45;98372.48;129788;1093;22584;-58
2021/08/06 08:26:23;;;;;;;6.20;3.85;;;;;;;22.32;68.62;98362.64;129795;1093;22662;-59
2021/08/06 08:28:53;;;;;;;6.25;3.50;;;;;;;22.33;68.19;98361.47;129677;1093;114286;-58
2021/08/06 08:31:24;;;;;;;9.15;4.68;;;;;;;22.33;68.74;98367.02;129760;1093;22560;-58
2021/08/06 08:33:55;;;;;;;6.63;4.20;;;;;;;22.39;68.83;98363.58;129671;1092;114533;-58
2021/08/06 08:36:24;;;;;;;6.60;3.60;;;;;;;22.43;68.57;98355.33;129779;1093;23559;-59
2021/08/06 08:38:55;;;;;;;7.53;4.03;;;;;;;22.46;68.42;98360.97;129794;1093;22968;-58
2021/08/06 08:41:24;;;;;;;4.95;3.90;;;;;;;22.51;67.95;98376.51;129630;1093;113797;-61
2021/08/06 08:43:55;;;;;;;8.38;4.15;;;;;;;22.53;67.88;98376.95;129707;1092;22657;-61
2021/08/06 08:46:26;;;;;;;9.28;4.63;;;;;;;22.53;67.48;98361.09;129663;1093;114843;-61
2021/08/06 08:48:57;;;;;;;5.30;3.63;;;;;;;22.52;67.57;98362.27;129813;1092;22515;-61
2021/08/06 08:51:27;;;;;;;5.90;4.05;;;;;;;22.53;67.90;98371.40;129678;1092;113947;-61
2021/08/06 08:54:04;;;;;;;9.60;3.80;;;;;;;22.55;67.88;98369.88;129807;1093;22659;-61
2021/08/06 08:56:35;;;;;;;7.80;4.58;;;;;;;22.60;67.72;98374.34;129767;1093;23000;-61
2021/08/06 08:59:05;;;;;;;6.70;4.13;;;;;;;22.66;67.87;98364.53;129716;1093;114405;-60
2021/08/06 09:01:37;;;;;;;7.73;4.43;;;;;;;22.68;67.49;98370.52;129754;1093;22592;-61
2021/08/06 09:04:24;;;;;;;6.20;3.93;;;;;;;22.69;67.47;98363.00;129691;1093;113994;-61
2021/08/06 09:06:55;;;;;;;6.77;3.97;;;;;;;22.72;67.44;98368.63;129781;1093;23158;-61
2021/08/06 09:09:36;;;;;;;4.58;3.53;;;;;;;22.77;68.02;98376.70;129646;1093;114196;-61
2021/08/06 09:12:27;;;;;;;7.37;4.33;;;;;;;22.85;68.35;98370.11;129742;1093;22545;-61
2021/08/06 09:15:53;;;;;;;4.93;3.95;;;;;;;22.98;68.03;98369.94;129673;1093;113878;-63
2021/08/06 09:18:27;;;;;;;5.65;3.98;;;;;;;23.11;68.24;98376.94;129772;1093;22532;-60
2021/08/06 09:21:04;;;;;;;5.15;3.90;;;;;;;23.21;67.38;98384.69;129812;1093;22541;-61
2021/08/06 09:23:42;;;;;;;5.53;3.60;;;;;;;23.28;67.02;98373.68;129700;1093;113556;-60
2021/08/06 09:26:26;;;;;;;7.10;3.75;;;;;;;23.35;67.13;98373.82;129830;1093;22648;-61
2021/08/06 09:29:08;;;;;;;6.13;3.55;;;;;;;23.45;66.73;98377.95;129694;1092;113794;-61
2021/08/06 09:31:40;;;;;;;6.63;3.75;;;;;;;23.53;66.34;98374.94;129784;1093;22523;-61
2021/08/06 09:34:10;;;;;;;4.95;3.55;;;;;;;23.58;65.79;98363.52;129722;1093;114172;-60
2021/08/06 09:37:01;;;;;;;6.08;3.30;;;;;;;23.59;65.31;98365.13;129825;1093;22713;-61
2021/08/06 09:39:39;;;;;;;6.40;3.83;;;;;;;23.61;65.35;98364.75;129572;1093;114896;-58
2021/08/06 09:42:22;;;;;;;4.40;3.45;;;;;;;23.64;65.36;98352.09;129790;1093;22524;-58
2021/08/06 09:45:15;;;;;;;9.30;3.48;;;;;;;23.68;65.43;98341.80;129811;1093;22543;-59
2021/08/06 09:47:46;;;;;;;6.60;4.23;;;;;;;23.75;65.52;98344.70;129716;1093;114007;-58
2021/08/06 09:50:17;;;;;;;6.30;4.00;;;;;;;23.81;65.39;98345.98;129800;1093;22563;-59
2021/08/06 09:52:47;;;;;;;10.33;4.18;;;;;;;23.84;65.31;98331.33;129723;1091;113781;-59
2021/08/06 09:55:33;;;;;;;5.63;3.70;;;;;;;23.88;65.19;98319.08;129830;1093;22600;-59
2021/08/06 09:58:07;;;;;;;6.45;3.75;;;;;;;23.94;65.09;98308.44;129704;1093;113904;-59
2021/08/06 10:00:40;;;;;;;5.25;3.63;;;;;;;24.00;65.00;98306.92;129766;1093;22570;-59
2021/08/06 10:03:37;;;;;;;6.98;3.73;;;;;;;24.05;65.05;98303.82;129779;1093;23361;-59
2021/08/06 10:06:12;;;;;;;6.18;4.23;;;;;;;24.08;63.83;98291.94;129816;1092;22573;-58
2021/08/06 10:08:41;;;;;;;6.85;3.85;;;;;;;24.08;64.09;98294.72;129802;1092;22543;-59
2021/08/06 10:11:11;;;;;;;8.75;5.00;;;;;;;24.09;63.25;98295.53;129739;1093;113805;-58
2021/08/06 10:14:00;;;;;;;10.18;6.40;;;;;;;24.11;63.55;98296.73;129821;1093;22554;-58
2021/08/06 10:16:29;;;;;;;10.30;5.43;;;;;;;24.15;63.18;98291.22;129695;1093;114332;-58
2021/08/06 10:18:58;;;;;;;10.05;5.03;;;;;;;24.19;63.86;98284.52;129775;1093;23085;-58
2021/08/06 10:21:27;;;;;;;9.85;4.88;;;;;;;24.25;63.68;98283.03;129781;1093;22579;-59
2021/08/06 10:23:57;;;;;;;12.30;7.40;;;;;;;24.35;63.79;98289.13;129646;1093;113748;-59
2021/08/06 10:26:26;;;;;;;6.20;4.75;;;;;;;24.43;62.80;98283.25;129736;1093;22506;-59
2021/08/06 10:28:55;;;;;;;6.18;4.08;;;;;;;24.52;62.57;98277.40;129683;1093;113786;-59
2021/08/06 10:31:24;;;;;;;6.83;4.10;;;;;;;24.58;62.02;98270.28;129736;1093;22554;-58
2021/08/06 10:34:12;;;;;;;7.55;4.43;;;;;;;24.63;61.78;98273.55;129706;1092;113876;-59
2021/08/06 10:36:48;;;;;;;8.28;5.23;;;;;;;24.70;61.71;98264.45;129826;1093;22539;-59
2021/08/06 10:39:37;;;;;;;7.23;4.60;;;;;;;24.75;61.36;98266.09;129788;1092;22533;-61
2021/08/06 10:42:06;;;;;;;6.55;4.88;;;;;;;24.74;60.84;98262.50;129727;1092;115319;-61
2021/08/06 10:45:08;;;;;;;7.50;5.10;;;;;;;24.75;60.81;98266.89;129743;1093;22533;-61
2021/08/06 10:47:53;;;;;;;9.57;6.53;;;;;;;24.76;60.05;98288.00;129161;1096;114050;-61
2021/08/06 10:50:22;;;;;;;12.75;7.10;;;;;;;24.76;60.84;98287.20;129325;1096;22668;-61
2021/08/06 10:53:16;;;;;;;7.55;4.95;;;;;;;24.76;61.12;98290.78;129190;1095;114181;-61
2021/08/06 10:55:45;;;;;;;6.70;4.93;;;;;;;24.78;61.01;98291.21;129281;1096;22577;-61
2021/08/06 10:58:48;;;;;;;7.70;4.50;;;;;;;24.78;60.71;98296.78;129210;1096;114285;-61
2021/08/06 11:01:26;;;;;;;9.60;5.45;;;;;;;24.76;60.88;98289.98;129304;1096;22635;-61
2021/08/06 11:03:57;;;;;;;9.93;5.98;;;;;;;24.74;60.95;98282.00;129198;1096;113845;-61
2021/08/06 11:06:45;;;;;;;8.25;5.53;;;;;;;24.73;61.01;98285.97;129351;1096;23178;-61
2021/08/06 11:09:23;;;;;;;11.15;5.93;;;;;;;24.73;61.53;98307.45;129327;1096;22573;-61
2021/08/06 11:12:12;;;;;;;8.75;5.05;;;;;;;24.76;61.50;98309.48;129170;1096;113831;-61
2021/08/06 11:14:42;;;;;;;7.50;5.18;;;;;;;24.77;61.24;98306.32;129334;1096;23683;-61
2021/08/06 11:17:24;;;;;;;7.58;4.90;;;;;;;24.75;61.29;98307.88;129231;1096;114647;-61
2021/08/06 11:20:07;;;;;;;8.05;4.75;;;;;;;24.74;61.40;98311.84;129309;1096;23510;-61
2021/08/06 11:22:38;;;;;;;8.95;4.00;;;;;;;24.66;60.90;98314.57;129174;1096;114457;-61
2021/08/06 11:25:07;;;;;;;7.90;4.60;;;;;;;24.59;60.88;98299.74;129833;1092;22577;-61
2021/08/06 11:27:38;;;;;;;15.55;5.15;;;;;;;24.54;61.38;98305.64;129813;1093;23078;-61
2021/08/06 11:30:10;;;;;;;9.28;5.05;;;;;;;24.50;62.21;98308.41;129705;1092;113785;-61
2021/08/06 11:32:58;;;;;;;11.05;5.25;;;;;;;24.51;62.22;98312.00;129787;1092;23342;-61
2021/08/06 11:35:38;;;;;;;8.83;5.00;;;;;;;24.53;62.99;98312.39;129711;1093;114052;-61
2021/08/06 11:38:11;;;;;;;7.25;4.60;;;;;;;24.55;62.87;98299.70;129767;1093;22629;-61
2021/08/06 11:40:44;;;;;;;6.58;4.85;;;;;;;24.59;62.27;98314.47;126831;1093;113821;-59
2021/08/06 11:43:19;;;;;;;7.55;4.70;;;;;;;24.63;61.80;98320.09;125168;1092;22812;-58
2021/08/06 11:45:53;;;;;;;9.88;5.48;;;;;;;24.64;62.12;98310.55;129669;1093;113912;-59
2021/08/06 11:48:22;;;;;;;17.65;5.23;;;;;;;24.65;61.89;98304.61;129806;1092;23131;-59
2021/08/06 11:50:53;;;;;;;9.73;4.73;;;;;;;24.68;62.62;98303.02;129780;1093;23497;-59
2021/08/06 11:53:24;;;;;;;7.40;4.93;;;;;;;24.68;61.90;98312.18;129689;1093;113901;-59
2021/08/06 11:56:02;;;;;;;10.58;5.10;;;;;;;24.70;61.43;98311.00;129811;1093;22540;-58
2021/08/06 11:58:38;;;;;;;6.25;4.48;;;;;;;24.66;61.29;98306.21;129638;1093;114594;-59